createdAt,value
2023-04-28T00:00:02.093Z,99033.25
2023-04-28T00:02:32.129Z,99070.81
2023-04-28T00:04:59.295Z,99067.97
2023-04-28T00:07:26.239Z,99064.13
2023-04-28T00:09:53.166Z,99050.22
2023-04-28T00:12:20.039Z,99044.50
2023-04-28T00:14:47.053Z,99018.28
2023-04-28T00:17:13.986Z,99027.38
2023-04-28T00:19:41.081Z,99028.34
2023-04-28T00:22:07.972Z,99014.53
2023-04-28T00:24:34.956Z,99028.44
2023-04-28T00:27:01.859Z,99021.09
2023-04-28T00:29:29.429Z,99021.66
2023-04-28T00:31:56.394Z,99005.91
2023-04-28T00:34:23.423Z,99005.41
2023-04-28T00:36:50.314Z,98992.28
2023-04-28T00:39:17.380Z,98973.19
2023-04-28T00:41:44.374Z,99010.34
2023-04-28T00:44:11.455Z,99019.28
2023-04-28T00:46:38.561Z,98967.69
2023-04-28T00:49:24.297Z,98992.41
2023-04-28T00:52:10.550Z,98985.91
2023-04-28T00:54:55.910Z,99003.34
2023-04-28T00:57:41.370Z,98982.28
2023-04-28T01:00:09.293Z,98989.63
2023-04-28T01:02:37.267Z,99002.22
2023-04-28T01:05:04.816Z,98999.03
2023-04-28T01:07:51.203Z,98999.03
2023-04-28T01:10:18.315Z,99002.84
2023-04-28T01:12:45.418Z,99014.00
2023-04-28T01:15:20.377Z,98988.94
2023-04-28T01:17:49.989Z,98991.25
2023-04-28T01:20:16.987Z,98998.50
2023-04-28T01:23:02.713Z,99024.94
2023-04-28T01:25:29.743Z,99009.56
2023-04-28T01:28:15.471Z,99014.75
2023-04-28T01:30:42.552Z,99008.91
2023-04-28T01:33:09.541Z,99009.66
2023-04-28T01:35:36.559Z,99004.88
2023-04-28T01:38:03.474Z,99013.72
2023-04-28T01:40:48.693Z,98999.03
2023-04-28T01:43:33.885Z,98995.75
2023-04-28T01:46:01.011Z,99000.00
2023-04-28T01:48:27.901Z,98980.88
2023-04-28T01:50:54.823Z,98993.63
2023-04-28T01:53:40.455Z,98999.25
2023-04-28T01:56:07.936Z,99011.50
2023-04-28T01:58:35.376Z,99004.16
2023-04-28T02:01:02.999Z,98986.09
2023-04-28T02:03:30.012Z,98990.78
2023-04-28T02:05:57.064Z,98972.50
2023-04-28T02:09:01.298Z,98986.53
2023-04-28T02:11:47.003Z,98967.44
2023-04-28T02:14:14.161Z,99015.72
2023-04-28T02:16:41.222Z,98993.53
2023-04-28T02:19:08.415Z,98998.72
2023-04-28T02:21:53.769Z,98997.25
2023-04-28T02:24:20.987Z,98997.16
2023-04-28T02:27:06.570Z,99007.00
2023-04-28T02:29:33.521Z,99016.97
2023-04-28T02:32:00.447Z,98988.25
2023-04-28T02:34:27.493Z,99022.84
2023-04-28T02:36:54.369Z,99013.38
2023-04-28T02:39:21.364Z,99024.31
2023-04-28T02:41:48.466Z,99027.53
2023-04-28T02:44:15.773Z,99005.84
2023-04-28T02:47:01.598Z,99012.88
2023-04-28T02:49:28.694Z,99019.53
2023-04-28T02:52:14.162Z,99017.72
2023-04-28T02:54:41.284Z,99022.69
2023-04-28T02:57:08.115Z,99024.78
2023-04-28T02:59:35.230Z,99015.88
2023-04-28T03:02:02.027Z,99005.41
2023-04-28T03:04:29.075Z,99017.13
2023-04-28T03:07:33.327Z,99025.59
2023-04-28T03:10:00.296Z,99025.13
2023-04-28T03:12:27.159Z,99034.50
2023-04-28T03:14:54.216Z,99027.69
2023-04-28T03:17:21.300Z,99015.97
2023-04-28T03:20:07.483Z,99033.53
2023-04-28T03:22:34.864Z,99005.91
2023-04-28T03:25:02.480Z,99020.56
2023-04-28T03:27:33.232Z,99020.63
2023-04-28T03:30:00.167Z,99019.66
2023-04-28T03:32:27.284Z,99027.53
2023-04-28T03:34:54.391Z,98994.91
2023-04-28T03:37:21.236Z,99025.50
2023-04-28T03:39:48.351Z,99023.47
2023-04-28T03:42:15.313Z,99012.72
2023-04-28T03:45:06.135Z,98995.19
2023-04-28T03:47:33.427Z,99030.81
2023-04-28T03:50:00.388Z,99011.16
2023-04-28T03:52:27.532Z,99023.94
2023-04-28T03:54:55.384Z,99019.25
2023-04-28T03:57:22.972Z,99017.44
2023-04-28T03:59:50.799Z,99028.66
2023-04-28T04:02:18.017Z,99021.53
2023-04-28T04:04:45.039Z,99004.41
2023-04-28T04:07:12.167Z,99025.66
2023-04-28T04:09:40.150Z,99028.94
2023-04-28T04:12:26.007Z,99036.53
2023-04-28T04:14:53.067Z,99028.91
2023-04-28T04:17:21.038Z,99027.94
2023-04-28T04:19:48.073Z,99041.59
2023-04-28T04:22:15.489Z,99019.84
2023-04-28T04:24:42.418Z,99038.56
2023-04-28T04:27:09.537Z,99028.16
2023-04-28T04:29:39.683Z,99030.50
2023-04-28T04:32:11.904Z,99014.19
2023-04-28T04:34:39.876Z,99018.09
2023-04-28T04:37:06.826Z,99023.81
2023-04-28T04:39:37.709Z,99026.94
2023-04-28T04:42:13.578Z,99042.34
2023-04-28T04:45:05.813Z,99046.88
2023-04-28T04:47:32.992Z,99040.66
2023-04-28T04:50:00.452Z,99037.47
2023-04-28T04:52:27.675Z,99040.41
2023-04-28T04:54:54.714Z,99032.50
2023-04-28T04:57:23.863Z,99051.41
2023-04-28T05:00:10.745Z,99024.72
2023-04-28T05:02:38.419Z,99025.03
2023-04-28T05:05:19.846Z,99050.50
2023-04-28T05:08:14.932Z,99008.81
2023-04-28T05:10:41.890Z,99046.03
2023-04-28T05:13:27.198Z,99033.75
2023-04-28T05:15:59.890Z,99054.66
2023-04-28T05:18:32.820Z,99039.09
2023-04-28T05:21:18.501Z,99048.19
2023-04-28T05:23:45.631Z,99052.00
2023-04-28T05:26:12.572Z,99054.03
2023-04-28T05:28:40.919Z,99048.59
2023-04-28T05:31:08.857Z,99070.63
2023-04-28T05:33:35.828Z,98716.16
2023-04-28T05:36:02.790Z,99066.75
2023-04-28T05:38:30.220Z,99055.56
2023-04-28T05:40:57.146Z,99066.47
2023-04-28T05:43:24.435Z,99069.63
2023-04-28T05:45:51.647Z,99066.47
2023-04-28T05:48:20.033Z,99043.88
2023-04-28T05:50:46.974Z,99039.25
2023-04-28T05:53:14.000Z,99063.88
2023-04-28T05:55:41.352Z,99067.06
2023-04-28T05:58:09.216Z,99069.84
2023-04-28T06:00:36.130Z,99047.63
2023-04-28T06:03:03.562Z,99028.75
2023-04-28T06:05:30.937Z,99062.41
2023-04-28T06:07:58.388Z,99067.00
2023-04-28T06:10:26.525Z,99051.50
2023-04-28T06:12:53.400Z,99052.97
2023-04-28T06:15:20.351Z,99094.31
2023-04-28T06:17:48.412Z,99055.72
2023-04-28T06:20:16.172Z,99077.66
2023-04-28T06:22:43.829Z,99041.00
2023-04-28T06:25:10.786Z,99059.16
2023-04-28T06:27:46.614Z,99043.94
2023-04-28T06:30:21.441Z,99067.66
2023-04-28T06:32:48.716Z,99060.41
2023-04-28T06:35:17.012Z,99063.06
2023-04-28T06:37:43.955Z,99054.16
2023-04-28T06:40:11.528Z,99056.38
2023-04-28T06:42:42.559Z,99063.16
2023-04-28T06:45:12.103Z,99039.13
2023-04-28T06:47:39.043Z,99077.38
2023-04-28T06:50:08.986Z,99051.44
2023-04-28T06:52:39.231Z,99054.91
2023-04-28T06:55:08.246Z,99069.34
2023-04-28T06:57:35.615Z,99050.50
2023-04-28T07:00:03.008Z,99069.09
2023-04-28T07:02:29.995Z,99070.00
2023-04-28T07:04:56.968Z,99080.41
2023-04-28T07:07:42.171Z,99069.84
2023-04-28T07:10:09.670Z,99054.88
2023-04-28T07:12:36.594Z,99064.81
2023-04-28T07:15:03.888Z,99087.47
2023-04-28T07:17:30.797Z,99060.03
2023-04-28T07:19:57.869Z,99041.44
2023-04-28T07:22:24.870Z,99076.47
2023-04-28T07:24:52.955Z,99053.94
2023-04-28T07:27:19.830Z,99039.00
2023-04-28T07:29:46.872Z,99055.16
2023-04-28T07:32:13.938Z,99041.69
2023-04-28T07:34:41.005Z,99029.91
2023-04-28T07:37:07.956Z,99056.13
2023-04-28T07:39:35.405Z,99057.84
2023-04-28T07:42:03.105Z,99058.81
2023-04-28T07:44:48.787Z,99047.72
2023-04-28T07:47:15.802Z,99060.53
2023-04-28T07:49:42.651Z,99038.25
2023-04-28T07:52:28.421Z,99051.19
2023-04-28T07:55:32.203Z,99042.16
2023-04-28T07:57:59.096Z,99037.28
2023-04-28T08:00:26.242Z,99035.06
2023-04-28T08:02:53.410Z,99045.59
2023-04-28T08:05:20.583Z,99037.91
2023-04-28T08:07:47.743Z,99015.19
2023-04-28T08:10:14.729Z,99034.09
2023-04-28T08:12:41.701Z,99052.59
2023-04-28T08:15:10.203Z,99026.97
2023-04-28T08:17:37.265Z,99024.47
2023-04-28T08:20:04.988Z,99038.25
2023-04-28T08:22:31.932Z,99014.91
2023-04-28T08:24:58.843Z,99025.50
2023-04-28T08:27:25.744Z,99023.72
2023-04-28T08:29:52.875Z,99023.53
2023-04-28T08:32:19.862Z,99006.13
2023-04-28T08:34:46.737Z,99012.53
2023-04-28T08:37:13.690Z,99000.28
2023-04-28T08:39:40.562Z,99005.44
2023-04-28T08:42:08.354Z,99008.38
2023-04-28T08:44:40.079Z,99021.00
2023-04-28T08:47:13.612Z,98996.09
2023-04-28T08:49:41.563Z,99009.81
2023-04-28T08:52:13.451Z,98983.59
2023-04-28T08:54:40.797Z,98982.91
2023-04-28T08:57:11.081Z,99007.38
2023-04-28T08:59:39.553Z,98991.44
2023-04-28T09:02:08.496Z,98989.72
2023-04-28T09:04:35.638Z,98989.25
2023-04-28T09:07:02.811Z,98975.56
2023-04-28T09:09:34.151Z,98989.44
2023-04-28T09:12:04.874Z,98979.00
2023-04-28T09:14:34.171Z,98973.13
2023-04-28T09:17:02.644Z,98955.47
2023-04-28T09:19:37.080Z,98974.50
2023-04-28T09:22:17.521Z,98987.53
2023-04-28T09:24:53.784Z,98983.84
2023-04-28T09:27:29.110Z,98972.53
2023-04-28T09:29:56.247Z,98982.63
2023-04-28T09:32:24.653Z,98978.72
2023-04-28T09:34:54.849Z,98983.09
2023-04-28T09:37:23.801Z,98987.78
2023-04-28T09:39:52.493Z,98995.13
2023-04-28T09:42:32.723Z,98979.44
2023-04-28T09:45:00.604Z,99002.22
2023-04-28T09:47:27.500Z,98959.84
2023-04-28T09:49:59.290Z,98983.84
2023-04-28T09:52:27.309Z,98993.91
2023-04-28T09:54:56.764Z,98984.59
2023-04-28T09:57:24.080Z,98993.81
2023-04-28T09:59:53.091Z,98977.22
2023-04-28T10:04:51.963Z,99009.19
2023-04-28T10:07:20.454Z,98989.13
2023-04-28T10:09:51.390Z,98982.34
2023-04-28T10:12:19.627Z,98990.25
2023-04-28T10:14:49.033Z,98964.03
2023-04-28T10:17:17.588Z,98977.22
2023-04-28T10:19:46.589Z,98977.97
2023-04-28T10:22:35.087Z,98997.78
2023-04-28T10:25:11.086Z,98993.41
2023-04-28T10:27:40.742Z,98981.91
2023-04-28T10:30:23.086Z,98991.06
2023-04-28T10:33:06.290Z,98992.47
2023-04-28T10:35:33.272Z,98983.25
2023-04-28T10:38:13.800Z,98994.53
2023-04-28T10:40:51.132Z,98979.06
2023-04-28T10:43:30.128Z,98994.81
2023-04-28T10:45:58.087Z,98979.66
2023-04-28T10:48:34.783Z,98977.00
2023-04-28T10:51:04.844Z,98983.59
2023-04-28T10:53:44.161Z,98959.53
2023-04-28T10:56:16.686Z,98974.47
2023-04-28T10:58:45.201Z,98969.72
2023-04-28T11:01:21.337Z,98949.31
2023-04-28T11:03:48.452Z,98969.22
2023-04-28T11:06:25.742Z,98964.69
2023-04-28T11:08:53.658Z,98968.69
2023-04-28T11:11:30.621Z,98972.78
2023-04-28T11:14:19.337Z,98957.53
2023-04-28T11:17:03.590Z,98963.69
2023-04-28T11:19:33.117Z,98936.59
2023-04-28T11:22:04.510Z,98966.00
2023-04-28T11:24:31.605Z,98931.22
2023-04-28T11:26:59.348Z,98938.81
2023-04-28T11:29:36.417Z,98951.47
2023-04-28T11:32:08.568Z,98923.75
2023-04-28T11:34:36.569Z,98922.06
2023-04-28T11:37:05.314Z,98904.00
2023-04-28T11:39:33.988Z,98909.75
2023-04-28T11:42:03.289Z,98894.63
2023-04-28T11:44:31.778Z,98881.75
2023-04-28T11:47:01.374Z,98937.19
2023-04-28T11:49:50.315Z,98911.72
2023-04-28T11:52:17.291Z,98902.78
2023-04-28T11:54:44.252Z,98920.94
2023-04-28T11:57:18.812Z,98899.13
2023-04-28T11:59:45.932Z,98897.19
2023-04-28T12:02:15.457Z,98888.34
2023-04-28T12:04:44.153Z,98887.34
2023-04-28T12:07:16.424Z,98893.28
2023-04-28T12:09:44.638Z,98888.06
2023-04-28T12:12:14.063Z,98875.34
2023-04-28T12:15:06.450Z,98873.47
2023-04-28T12:17:38.454Z,98864.91
2023-04-28T12:20:07.867Z,98871.28
2023-04-28T12:22:48.866Z,98863.66
2023-04-28T12:25:18.417Z,98873.94
2023-04-28T12:28:01.686Z,98874.19
2023-04-28T12:30:30.184Z,98857.03
2023-04-28T12:32:57.638Z,98869.50
2023-04-28T12:35:26.066Z,98859.75
2023-04-28T12:37:53.821Z,98871.00
2023-04-28T12:40:20.824Z,98837.00
2023-04-28T12:42:47.791Z,98874.59
2023-04-28T12:45:17.636Z,98864.53
2023-04-28T12:47:44.731Z,98873.59
2023-04-28T12:50:12.000Z,98840.75
2023-04-28T12:52:41.094Z,98868.66
2023-04-28T12:55:08.620Z,98837.47
2023-04-28T12:57:36.849Z,98869.66
2023-04-28T13:00:08.736Z,98859.81
2023-04-28T13:02:36.011Z,98863.81
2023-04-28T13:05:03.564Z,98873.28
2023-04-28T13:07:30.688Z,98862.03
2023-04-28T13:09:57.953Z,98852.34
2023-04-28T13:12:24.863Z,98871.25
2023-04-28T13:14:51.840Z,98845.31
2023-04-28T13:17:18.818Z,98848.75
2023-04-28T13:19:46.309Z,98853.63
2023-04-28T13:22:13.693Z,98899.16
2023-04-28T13:24:40.608Z,98870.78
2023-04-28T13:27:07.527Z,98853.88
2023-04-28T13:29:34.528Z,98864.19
2023-04-28T13:32:01.412Z,98862.22
2023-04-28T13:34:28.427Z,98855.13
2023-04-28T13:36:55.364Z,98855.63
2023-04-28T13:39:22.330Z,98853.91
2023-04-28T13:41:49.644Z,98846.06
2023-04-28T13:44:17.230Z,98856.81
2023-04-28T13:46:44.158Z,98870.28
2023-04-28T13:49:11.198Z,98837.75
2023-04-28T13:51:38.483Z,98841.41
2023-04-28T13:54:05.792Z,98832.84
2023-04-28T13:56:32.714Z,98845.34
2023-04-28T13:59:00.138Z,98827.97
2023-04-28T14:01:27.114Z,98826.00
2023-04-28T14:03:54.293Z,98837.97
2023-04-28T14:06:21.704Z,98835.78
2023-04-28T14:08:48.730Z,98827.47
2023-04-28T14:11:15.737Z,98827.47
2023-04-28T14:13:42.758Z,98831.88
2023-04-28T14:16:09.618Z,98837.25
2023-04-28T14:18:37.465Z,98829.41
2023-04-28T14:21:04.496Z,98840.44
2023-04-28T14:23:31.395Z,98832.34
2023-04-28T14:25:58.367Z,98826.91
2023-04-28T14:28:25.423Z,98763.59
2023-04-28T14:30:54.421Z,98835.28
2023-04-28T14:33:21.521Z,98816.69
2023-04-28T14:35:48.460Z,98801.50
2023-04-28T14:38:15.452Z,98791.97
2023-04-28T14:40:42.306Z,98812.06
2023-04-28T14:43:09.251Z,98794.22
2023-04-28T14:45:36.743Z,98795.66
2023-04-28T14:48:04.017Z,98799.09
2023-04-28T14:50:31.004Z,98794.69
2023-04-28T14:52:57.905Z,98791.50
2023-04-28T14:55:24.804Z,98782.19
2023-04-28T14:57:52.074Z,98785.31
2023-04-28T15:00:19.297Z,98785.34
2023-04-28T15:02:46.313Z,98777.22
2023-04-28T15:05:13.374Z,98815.63
2023-04-28T15:07:40.637Z,98799.22
2023-04-28T15:10:08.216Z,98785.75
2023-04-28T15:12:35.385Z,98793.78
2023-04-28T15:15:02.253Z,98804.53
2023-04-28T15:17:29.350Z,98805.63
2023-04-28T15:19:56.325Z,98788.78
2023-04-28T15:22:23.280Z,98790.59
2023-04-28T15:24:51.352Z,98806.84
2023-04-28T15:27:18.530Z,98785.06
2023-04-28T15:29:45.523Z,98800.44
2023-04-28T15:32:12.452Z,98804.78
2023-04-28T15:34:39.342Z,98817.72
2023-04-28T15:37:38.198Z,98811.91
2023-04-28T15:40:06.048Z,98806.22
2023-04-28T15:42:33.152Z,98810.63
2023-04-28T15:45:00.235Z,98831.13
2023-04-28T15:47:27.250Z,98782.97
2023-04-28T15:49:55.503Z,98842.31
2023-04-28T15:52:22.392Z,98821.28
2023-04-28T15:54:52.023Z,98799.72
2023-04-28T15:57:19.048Z,98815.38
2023-04-28T15:59:46.043Z,98811.50
2023-04-28T16:02:15.639Z,98836.34
2023-04-28T16:04:42.826Z,98815.75
2023-04-28T16:07:09.965Z,98842.84
2023-04-28T16:09:37.052Z,98848.34
2023-04-28T16:12:04.160Z,98827.34
2023-04-28T16:14:31.128Z,98808.41
2023-04-28T16:17:00.478Z,98821.66
2023-04-28T16:19:29.249Z,98829.66
2023-04-28T16:21:59.122Z,98812.78
2023-04-28T16:24:40.549Z,98817.31
2023-04-28T16:27:13.688Z,98841.31
2023-04-28T16:30:12.943Z,98835.34
2023-04-28T16:33:00.456Z,98814.72
2023-04-28T16:35:31.635Z,98824.59
2023-04-28T16:37:58.874Z,98816.28
2023-04-28T16:40:39.940Z,98818.91
2023-04-28T16:43:11.550Z,98819.81
2023-04-28T16:45:38.502Z,98818.25
2023-04-28T16:48:05.451Z,98828.97
2023-04-28T16:50:33.104Z,98820.53
2023-04-28T16:53:02.772Z,98853.00
2023-04-28T16:55:33.081Z,98837.50
2023-04-28T16:58:01.790Z,98827.22
2023-04-28T17:00:36.974Z,98852.72
2023-04-28T17:03:11.636Z,98830.28
2023-04-28T17:05:45.622Z,98861.47
2023-04-28T17:11:33.821Z,98856.69
2023-04-28T17:14:03.918Z,98832.75
2023-04-28T17:16:32.036Z,98823.19
2023-04-28T17:18:59.172Z,98838.47
2023-04-28T17:21:29.322Z,98831.16
2023-04-28T17:24:41.934Z,98841.94
2023-04-28T17:27:08.929Z,98838.47
2023-04-28T17:29:38.778Z,98824.91
2023-04-28T17:32:06.093Z,98810.47
2023-04-28T17:34:33.048Z,98825.19
2023-04-28T17:37:02.726Z,98816.97
2023-04-28T17:39:33.908Z,98813.03
2023-04-28T17:42:03.164Z,98816.75
2023-04-28T17:44:30.058Z,98816.69
2023-04-28T17:46:59.449Z,98800.31
2023-04-28T17:49:29.243Z,98820.25
2023-04-28T17:51:56.108Z,98802.75
2023-04-28T17:54:22.983Z,98799.41
2023-04-28T17:56:49.876Z,98810.94
2023-04-28T17:59:20.043Z,98789.31
2023-04-28T18:01:46.899Z,98801.47
2023-04-28T18:04:14.012Z,98813.78
2023-04-28T18:06:40.926Z,98803.97
2023-04-28T18:09:07.982Z,98773.19
2023-04-28T18:11:34.907Z,98789.81
2023-04-28T18:14:01.800Z,98816.34
2023-04-28T18:16:28.786Z,98765.91
2023-04-28T18:18:55.859Z,98788.38
2023-04-28T18:21:22.777Z,98785.19
2023-04-28T18:23:49.680Z,98797.28
2023-04-28T18:26:16.619Z,98788.59
2023-04-28T18:28:46.951Z,98754.72
2023-04-28T18:31:14.126Z,98768.00
2023-04-28T18:33:41.205Z,98791.44
2023-04-28T18:36:08.328Z,98773.19
2023-04-28T18:38:44.693Z,98760.53
2023-04-28T18:41:18.300Z,98764.19
2023-04-28T18:43:45.315Z,98783.03
2023-04-28T18:46:13.091Z,98755.53
2023-04-28T18:48:40.205Z,98780.06
2023-04-28T18:51:07.175Z,98750.38
2023-04-28T18:53:36.154Z,98776.72
2023-04-28T18:56:03.121Z,98758.28
2023-04-28T18:58:30.089Z,98746.28
2023-04-28T19:00:57.117Z,98756.66
2023-04-28T19:03:26.848Z,98758.66
2023-04-28T19:05:54.134Z,98753.88
2023-04-28T19:08:26.000Z,98763.31
2023-04-28T19:10:56.809Z,98780.00
2023-04-28T19:13:26.037Z,98767.28
2023-04-28T19:15:56.857Z,98767.50
2023-04-28T19:18:24.776Z,98763.34
2023-04-28T19:21:01.581Z,98785.16
2023-04-28T19:23:29.516Z,98767.50
2023-04-28T19:25:57.553Z,98773.44
2023-04-28T19:28:27.592Z,98759.22
2023-04-28T19:30:57.738Z,98780.78
2023-04-28T19:33:28.013Z,98758.06
2023-04-28T19:35:55.691Z,98783.19
2023-04-28T19:38:24.973Z,98790.34
2023-04-28T19:41:03.728Z,98784.72
2023-04-28T19:43:30.993Z,98769.69
2023-04-28T19:45:58.032Z,98787.22
2023-04-28T19:48:27.510Z,98801.03
2023-04-28T19:50:54.710Z,98796.75
2023-04-28T19:53:26.369Z,98776.47
2023-04-28T19:55:53.337Z,98804.03
2023-04-28T19:58:20.201Z,98806.53
2023-04-28T20:00:47.105Z,98773.66
2023-04-28T20:03:14.228Z,98787.22
2023-04-28T20:05:41.226Z,98786.31
2023-04-28T20:08:08.260Z,98785.16
2023-04-28T20:10:35.320Z,98795.44
2023-04-28T20:13:02.140Z,98763.59
2023-04-28T20:15:29.284Z,98783.63
2023-04-28T20:17:56.190Z,98790.28
2023-04-28T20:20:23.182Z,98799.56
2023-04-28T20:22:50.093Z,98806.00
2023-04-28T20:25:17.263Z,98792.69
2023-04-28T20:27:44.157Z,98779.28
2023-04-28T20:30:11.310Z,98778.66
2023-04-28T20:32:38.475Z,98787.38
2023-04-28T20:35:05.835Z,98777.16
2023-04-28T20:37:32.719Z,98744.75
2023-04-28T20:39:59.697Z,98767.94
2023-04-28T20:42:26.581Z,98802.16
2023-04-28T20:44:53.600Z,98771.63
2023-04-28T20:47:20.508Z,98796.56
2023-04-28T20:49:47.593Z,98796.28
2023-04-28T20:52:14.508Z,98804.91
2023-04-28T20:54:41.664Z,98795.88
2023-04-28T20:57:08.542Z,98795.13
2023-04-28T20:59:35.435Z,98780.78
2023-04-28T21:02:02.455Z,98793.00
2023-04-28T21:04:29.448Z,98792.41
2023-04-28T21:06:56.367Z,98765.91
2023-04-28T21:09:23.348Z,98764.69
2023-04-28T21:11:50.794Z,98789.59
2023-04-28T21:14:20.877Z,98791.69
2023-04-28T21:16:48.223Z,98791.66
2023-04-28T21:19:17.535Z,98782.78
2023-04-28T21:21:46.813Z,98775.09
2023-04-28T21:24:16.315Z,98781.31
2023-04-28T21:26:43.282Z,98771.72
2023-04-28T21:29:11.491Z,98767.88
2023-04-28T21:31:44.274Z,98773.97
2023-04-28T21:34:14.124Z,98738.50
2023-04-28T21:36:41.166Z,98772.03
2023-04-28T21:39:08.117Z,98756.53
2023-04-28T21:41:35.012Z,98762.56
2023-04-28T21:44:07.672Z,98752.78
2023-04-28T21:46:36.502Z,98742.88
2023-04-28T21:49:03.405Z,98750.16
2023-04-28T21:51:30.382Z,98750.59
2023-04-28T21:53:57.358Z,98758.00
2023-04-28T21:56:26.720Z,98749.88
2023-04-28T21:58:53.616Z,98756.81
2023-04-28T22:01:21.221Z,98764.50
2023-04-28T22:03:52.415Z,98756.66
2023-04-28T22:06:20.679Z,98747.03
2023-04-28T22:08:48.040Z,98737.91
2023-04-28T22:11:15.192Z,98751.34
2023-04-28T22:13:44.588Z,98735.81
2023-04-28T22:16:11.554Z,98722.50
2023-04-28T22:18:41.634Z,98722.19
2023-04-28T22:21:09.004Z,98739.50
2023-04-28T22:23:38.510Z,98725.19
2023-04-28T22:26:06.152Z,98719.41
2023-04-28T22:28:33.115Z,98725.91
2023-04-28T22:31:00.058Z,98708.00
2023-04-28T22:33:27.015Z,98693.63
2023-04-28T22:35:56.983Z,98727.25
2023-04-28T22:38:23.955Z,98773.84
2023-04-28T22:40:50.836Z,98709.34
2023-04-28T22:43:17.682Z,98677.56
2023-04-28T22:45:44.711Z,98702.97
2023-04-28T22:48:12.799Z,98693.19
2023-04-28T22:50:39.839Z,98707.69
2023-04-28T22:53:06.863Z,98692.03
2023-04-28T22:55:33.857Z,98688.59
2023-04-28T22:58:00.770Z,98684.44
2023-04-28T23:00:27.670Z,98684.31
2023-04-28T23:02:54.660Z,98682.25
2023-04-28T23:05:22.474Z,98700.56
2023-04-28T23:07:51.194Z,98675.13
2023-04-28T23:10:18.088Z,98670.72
2023-04-28T23:12:45.000Z,98667.00
2023-04-28T23:15:11.922Z,98671.84
2023-04-28T23:17:38.933Z,98677.06
2023-04-28T23:20:06.621Z,98662.41
2023-04-28T23:22:33.487Z,98674.53
2023-04-28T23:25:00.375Z,98669.22
2023-04-28T23:27:27.265Z,98641.13
2023-04-28T23:29:54.184Z,98670.41
2023-04-28T23:32:21.139Z,98690.38
2023-04-28T23:34:48.009Z,98662.31
2023-04-28T23:37:14.845Z,98670.72
2023-04-28T23:39:41.699Z,98670.41
2023-04-28T23:42:08.543Z,98661.53
2023-04-28T23:44:35.355Z,98668.50
2023-04-28T23:47:02.295Z,98667.91
2023-04-28T23:49:29.160Z,98668.06
2023-04-28T23:51:56.152Z,98681.66
2023-04-28T23:54:23.078Z,98675.47
2023-04-28T23:56:49.924Z,98670.13
2023-04-28T23:59:16.740Z,98662.16
